Terminal Aerodrome Forecast
Issued by NWS

Home | Current Version | Previous Version | Graphics & Text | Print | Product List | Glossary On
Versions: 1 2 3 4 5 6 7 8 9 10 11 12
000
FTUS45 KGGW 242326
TAFGDV
TAF
KGDV 242326Z 2500/2524 01013KT P6SM BKN100
     FM250200 01009KT P6SM FEW110
     FM251500 27007KT P6SM FEW110
     FM252000 35012KT P6SM FEW110=

USA.gov is the U.S. government's official web portal to all federal, state and local government web resources and services.